OPNHOPKC

Guest
Details From OPNH - NAWABSHAH
To OPKC - Karachi Jinnah Intl
Flight Number -
Tags generated
Created
Modified
Stats Distance 103 nm / 191 km
Max Altitude 5,500 ft / 1,676 m
Waypoints 4
Social Downloads 1
Likes 0
Share VATSIM

Download

Looking for another format? Having issues loading an existing format? Contact us
Advertisement - Login to hide

Notes

Basic altitude profile: - Ascent Rate: 2500ft/min - Ascent Speed: 250kts - Cruise Altitude: 35000ft - Cruise Speed: 420kts - Descent Rate: 1500ft/min - Descent Speed: 250kts Options: - Use NATs: yes - Use PACOTS: yes - Use low airways: yes - Use high airways: yes

Route

OPNH BADIL B466 KC OPKC

ID Type Via Altitude Latitude Longitude Leg Dist Tot Dist Heading (true) Name
O OPNH APT - 0 ft / 0 m 26.21944˚ 68.39005˚ - 0 nm - NAWABSHAH
BADIL FIX - 5,500 ft / 1,676 m 25.22889˚ 67.47361˚ 77 nm 77 nm 220° / 220° -
KC VOR B466 (AWY-LO) 5,000 ft / 1,524 m 24.91048˚ 67.17665˚ 25 nm 102 nm 220° / 220° KARACHI VOR-DME
O OPKC APT - 0 ft / 0 m 24.90655˚ 67.16080˚ 0 nm 103 nm 255° / 255° Karachi Jinnah Intl

Altitude Profile

Advertisement - Login to hide

OPNH

Details ICAO OPNH (WNS)
Name NAWABSHAH
Region Pakistan
Timezone Asia/Karachi (UTC+5.0)
Stats Elevation 95 ft / 29 m (AMSL)
Location 26.219439° 68.390055°
Runways 1
Magnetic Variation 1.256° E

METAR

OPNH 130300Z 31504KT 2000 FU NSC 09/04 Q1017 BECMG 3000 FU

Decode

TAF

Not found

Departure Runways

ID Width Length Bearing (true) Bearing (mag) Surface Threshold Offset Overrun Length
02 150 ft / 46 m 9,031 ft / 2,753 m 20.42° 19.16° Concrete 0 ft / 0 m 934 ft / 285 m
20 150 ft / 46 m 9,031 ft / 2,753 m 200.42° 199.16° Concrete 0 ft / 0 m 934 ft / 285 m

OPKC

Details ICAO OPKC (KHI)
Name Karachi Jinnah Intl
Region Pakistan
Timezone Asia/Karachi (UTC+5.0)
Stats Elevation 100 ft / 30 m (AMSL)
Location 24.906547° 67.160797°
Runways 2
Magnetic Variation 1.073° E

METAR

OPKC 130325Z 03007KT 5000 -REDZ SCT020 BKN100 15/05 Q1018 NOSIG

Decode

TAF

Not found

Destination Runways

ID Width Length Bearing (true) Bearing (mag) Surface Threshold Offset Overrun Length
07L 151 ft / 46 m 10,451 ft / 3,186 m 74.40° 73.33° Concrete 0 ft / 0 m 1,000 ft / 305 m
07R 151 ft / 46 m 11,145 ft / 3,397 m 74.22° 73.15° Concrete 0 ft / 0 m 990 ft / 302 m
25L 151 ft / 46 m 11,145 ft / 3,397 m 254.24° 253.17° Concrete 0 ft / 0 m 625 ft / 191 m
25R 151 ft / 46 m 10,451 ft / 3,186 m 254.41° 253.34° Concrete 0 ft / 0 m 1,000 ft / 305 m

Approach Navaids

Runway Type Ident Frequency Range Bearing (true) Bearing (mag) Slope Elevation
25R Localiser IKC 109.70 MHz 18 nm / 33 km 253.38° 252.31° - 90 ft / 27 m (AMSL)
25R Glidescope IKC 109.70 MHz 10 nm / 19 km 254.41° 253.34° 3.00° 156 ft / 48 m (AMSL)
25R DME IKC 109.70 MHz 18 nm / 33 km - - - 156 ft / 48 m (AMSL)

Popular Alternatives